createdAt,value
2023-01-23T00:01:34.445Z,37.72
2023-01-23T00:04:01.764Z,36.42
2023-01-23T00:06:29.157Z,37.65
2023-01-23T00:08:57.024Z,35.13
2023-01-23T00:11:27.665Z,36.47
2023-01-23T00:13:54.947Z,38.03
2023-01-23T00:16:24.156Z,39.95
2023-01-23T00:18:52.386Z,34.50
2023-01-23T00:21:22.891Z,34.20
2023-01-23T00:23:52.931Z,37.53
2023-01-23T00:26:26.136Z,35.97
2023-01-23T00:28:54.819Z,35.10
2023-01-23T00:31:26.016Z,35.00
2023-01-23T00:33:58.859Z,37.22
2023-01-23T00:36:30.128Z,33.90
2023-01-23T00:38:57.590Z,36.38
2023-01-23T00:41:25.169Z,34.90
2023-01-23T00:43:52.443Z,33.78
2023-01-23T00:46:21.584Z,34.28
2023-01-23T00:48:48.960Z,34.70
2023-01-23T00:51:16.155Z,36.45
2023-01-23T00:53:43.850Z,36.50
2023-01-23T00:56:12.066Z,36.45
2023-01-23T00:58:40.724Z,38.85
2023-01-23T01:01:08.462Z,37.42
2023-01-23T01:03:35.904Z,35.38
2023-01-23T01:06:03.083Z,38.33
2023-01-23T01:08:30.417Z,39.28
2023-01-23T01:10:57.627Z,39.45
2023-01-23T01:13:25.429Z,36.03
2023-01-23T01:15:53.712Z,40.03
2023-01-23T01:18:22.322Z,37.35
2023-01-23T01:20:50.042Z,41.88
2023-01-23T01:23:17.791Z,38.90
2023-01-23T01:25:45.091Z,40.60
2023-01-23T01:28:12.837Z,40.08
2023-01-23T01:30:41.430Z,40.53
2023-01-23T01:33:09.125Z,37.47
2023-01-23T01:35:36.249Z,38.65
2023-01-23T01:38:03.413Z,37.30
2023-01-23T01:40:34.372Z,37.42
2023-01-23T01:43:08.117Z,38.67
2023-01-23T01:46:02.963Z,38.25
2023-01-23T01:48:43.826Z,36.72
2023-01-23T01:51:21.526Z,35.42
2023-01-23T01:54:16.722Z,35.40
2023-01-23T01:59:19.148Z,33.55
2023-01-23T02:01:49.948Z,38.97
2023-01-23T02:04:17.604Z,37.90
2023-01-23T02:06:44.854Z,38.75
2023-01-23T02:09:23.418Z,38.00
2023-01-23T02:11:51.516Z,37.83
2023-01-23T02:14:19.058Z,37.65
2023-01-23T02:16:50.783Z,35.78
2023-01-23T02:19:30.625Z,34.55
2023-01-23T02:22:09.545Z,36.22
2023-01-23T02:24:44.236Z,36.53
2023-01-23T02:27:11.460Z,34.08
2023-01-23T02:29:44.459Z,36.60
2023-01-23T02:32:11.967Z,35.38
2023-01-23T02:34:39.225Z,38.78
2023-01-23T02:37:08.237Z,36.08
2023-01-23T02:39:35.401Z,37.33
2023-01-23T02:42:03.402Z,36.58
2023-01-23T02:44:32.142Z,35.05
2023-01-23T02:47:02.881Z,35.33
2023-01-23T02:49:30.647Z,38.75
2023-01-23T02:51:57.936Z,39.53
2023-01-23T02:54:26.393Z,37.17
2023-01-23T02:56:53.568Z,40.53
2023-01-23T02:59:38.962Z,37.78
2023-01-23T03:02:06.519Z,35.30
2023-01-23T03:04:33.823Z,37.85
2023-01-23T03:07:01.090Z,37.95
2023-01-23T03:09:28.418Z,38.65
2023-01-23T03:11:55.796Z,38.60
2023-01-23T03:14:24.290Z,36.97
2023-01-23T03:16:54.089Z,36.08
2023-01-23T03:19:25.170Z,37.08
2023-01-23T03:21:53.489Z,34.13
2023-01-23T03:24:21.188Z,37.00
2023-01-23T03:26:49.767Z,38.03
2023-01-23T03:29:38.355Z,37.88
2023-01-23T03:32:06.239Z,35.92
2023-01-23T03:34:33.595Z,40.53
2023-01-23T03:37:01.551Z,39.65
2023-01-23T03:39:47.509Z,38.70
2023-01-23T03:42:14.736Z,39.45
2023-01-23T03:44:43.320Z,35.40
2023-01-23T03:47:10.889Z,37.92
2023-01-23T03:49:38.080Z,39.47
2023-01-23T03:52:05.401Z,37.70
2023-01-23T03:54:32.677Z,38.30
2023-01-23T03:56:59.884Z,37.60
2023-01-23T03:59:27.062Z,37.00
2023-01-23T04:01:54.199Z,38.72
2023-01-23T04:04:21.470Z,33.10
2023-01-23T04:06:48.535Z,33.80
2023-01-23T04:09:15.713Z,35.38
2023-01-23T04:11:42.797Z,35.78
2023-01-23T04:14:10.099Z,38.80
2023-01-23T04:16:39.479Z,36.25
2023-01-23T04:19:06.597Z,43.97
2023-01-23T04:21:33.733Z,42.65
2023-01-23T04:24:00.860Z,37.60
2023-01-23T04:26:29.503Z,39.75
2023-01-23T04:28:56.698Z,38.00
2023-01-23T04:31:23.899Z,41.92
2023-01-23T04:33:51.188Z,40.70
2023-01-23T04:36:18.302Z,36.80
2023-01-23T04:38:45.366Z,41.13
2023-01-23T04:41:24.618Z,41.22
2023-01-23T04:43:51.840Z,38.80
2023-01-23T04:46:19.063Z,38.45
2023-01-23T04:48:48.716Z,40.72
2023-01-23T04:51:16.210Z,43.08
2023-01-23T04:53:43.433Z,40.20
2023-01-23T04:56:10.497Z,38.70
2023-01-23T04:58:37.700Z,39.95
2023-01-23T05:01:08.693Z,47.47
2023-01-23T05:03:35.955Z,42.40
2023-01-23T05:06:03.143Z,43.95
2023-01-23T05:08:30.264Z,42.05
2023-01-23T05:10:57.372Z,42.67
2023-01-23T05:13:24.452Z,41.35
2023-01-23T05:15:51.580Z,45.30
2023-01-23T05:18:18.684Z,40.65
2023-01-23T05:20:45.801Z,36.90
2023-01-23T05:23:12.885Z,46.78
2023-01-23T05:25:40.042Z,40.53
2023-01-23T05:28:07.125Z,42.30
2023-01-23T05:30:34.589Z,42.60
2023-01-23T05:33:01.769Z,42.28
2023-01-23T05:35:29.065Z,42.20
2023-01-23T05:37:56.221Z,50.33
2023-01-23T05:40:23.808Z,46.30
2023-01-23T05:42:51.488Z,39.25
2023-01-23T05:45:18.809Z,42.80
2023-01-23T05:47:46.091Z,45.92
2023-01-23T05:50:18.177Z,39.55
2023-01-23T05:52:46.615Z,37.88
2023-01-23T05:55:14.449Z,38.42
2023-01-23T05:57:42.095Z,33.42
2023-01-23T06:00:14.088Z,34.88
2023-01-23T06:02:41.423Z,35.50
2023-01-23T06:05:09.038Z,37.05
2023-01-23T06:07:37.728Z,68.22
2023-01-23T06:10:09.031Z,59.08
2023-01-23T06:12:37.379Z,41.85
2023-01-23T06:15:05.290Z,45.17
2023-01-23T06:17:34.885Z,48.42
2023-01-23T06:20:02.388Z,34.63
2023-01-23T06:22:31.443Z,35.30
2023-01-23T06:24:58.756Z,26.38
2023-01-23T06:27:25.849Z,29.98
2023-01-23T06:29:53.112Z,38.33
2023-01-23T06:32:20.332Z,37.22
2023-01-23T06:34:47.505Z,30.52
2023-01-23T06:37:14.631Z,32.40
2023-01-23T06:39:41.850Z,32.17
2023-01-23T06:42:10.459Z,37.20
2023-01-23T06:44:38.032Z,34.70
2023-01-23T06:47:05.422Z,39.08
2023-01-23T06:49:32.962Z,36.75
2023-01-23T06:52:00.134Z,39.85
2023-01-23T06:54:27.421Z,40.50
2023-01-23T06:56:54.677Z,38.90
2023-01-23T06:59:21.809Z,39.97
2023-01-23T07:01:49.110Z,43.65
2023-01-23T07:04:16.322Z,41.55
2023-01-23T07:06:43.479Z,39.55
2023-01-23T07:09:10.892Z,36.63
2023-01-23T07:11:38.123Z,35.72
2023-01-23T07:14:05.188Z,42.45
2023-01-23T07:16:33.128Z,49.65
2023-01-23T07:19:00.361Z,48.15
2023-01-23T07:21:27.571Z,46.47
2023-01-23T07:23:54.655Z,53.63
2023-01-23T07:26:21.804Z,46.67
2023-01-23T07:28:48.918Z,48.40
2023-01-23T07:31:16.858Z,51.85
2023-01-23T07:33:43.996Z,47.88
2023-01-23T07:36:14.113Z,46.97
2023-01-23T07:38:41.499Z,49.45
2023-01-23T07:41:09.109Z,49.15
2023-01-23T07:43:36.236Z,48.90
2023-01-23T07:46:03.467Z,51.25
2023-01-23T07:48:30.777Z,49.33
2023-01-23T07:51:01.622Z,46.22
2023-01-23T07:53:28.881Z,46.28
2023-01-23T07:55:56.071Z,44.67
2023-01-23T07:58:23.329Z,46.05
2023-01-23T08:00:50.558Z,47.63
2023-01-23T08:03:18.729Z,44.35
2023-01-23T08:05:50.094Z,46.90
2023-01-23T08:08:17.680Z,46.60
2023-01-23T08:10:44.841Z,41.08
2023-01-23T08:13:12.098Z,47.60
2023-01-23T08:15:39.216Z,43.28
2023-01-23T08:18:10.230Z,45.78
2023-01-23T08:20:37.379Z,50.08
2023-01-23T08:23:04.616Z,41.55
2023-01-23T08:25:31.753Z,41.80
2023-01-23T08:27:58.910Z,42.33
2023-01-23T08:30:26.093Z,43.60
2023-01-23T08:32:53.291Z,45.00
2023-01-23T08:35:20.425Z,44.33
2023-01-23T08:37:47.659Z,42.50
2023-01-23T08:40:14.816Z,43.40
2023-01-23T08:42:42.047Z,41.58
2023-01-23T08:45:09.686Z,46.10
2023-01-23T08:47:37.221Z,45.00
2023-01-23T08:50:05.835Z,46.20
2023-01-23T08:52:34.958Z,42.88
2023-01-23T08:55:02.108Z,44.40
2023-01-23T08:57:29.231Z,43.08
2023-01-23T08:59:56.369Z,43.85
2023-01-23T09:02:23.586Z,39.95
2023-01-23T09:04:51.489Z,43.83
2023-01-23T09:07:18.637Z,47.38
2023-01-23T09:09:45.773Z,45.60
2023-01-23T09:12:12.960Z,50.08
2023-01-23T09:14:40.159Z,47.13
2023-01-23T09:17:07.275Z,48.78
2023-01-23T09:19:34.658Z,46.42
2023-01-23T09:22:01.913Z,47.78
2023-01-23T09:24:29.241Z,47.70
2023-01-23T09:26:56.396Z,48.38
2023-01-23T09:29:23.571Z,44.13
2023-01-23T09:31:50.660Z,47.47
2023-01-23T09:34:17.998Z,45.50
2023-01-23T09:36:45.114Z,44.28
2023-01-23T09:39:12.684Z,47.35
2023-01-23T09:41:41.638Z,45.80
2023-01-23T09:44:17.812Z,45.90
2023-01-23T09:46:56.411Z,49.25
2023-01-23T09:49:53.354Z,46.10
2023-01-23T09:52:24.131Z,46.35
2023-01-23T09:55:02.324Z,49.40
2023-01-23T09:57:35.850Z,44.15
2023-01-23T10:00:17.693Z,45.00
2023-01-23T10:02:45.861Z,43.42
2023-01-23T10:05:16.076Z,48.00
2023-01-23T10:08:06.121Z,45.85
2023-01-23T10:11:12.730Z,44.75
2023-01-23T10:13:54.357Z,47.28
2023-01-23T10:16:55.581Z,45.08
2023-01-23T10:19:47.363Z,48.20
2023-01-23T10:22:34.803Z,44.22
2023-01-23T10:25:16.570Z,53.38
2023-01-23T10:27:47.829Z,46.88
2023-01-23T10:30:38.738Z,48.75
2023-01-23T10:33:17.986Z,50.35
2023-01-23T10:35:58.978Z,50.15
2023-01-23T10:38:46.635Z,54.28
2023-01-23T10:41:23.321Z,53.78
2023-01-23T10:43:53.768Z,56.25
2023-01-23T10:46:28.438Z,54.70
2023-01-23T10:48:56.477Z,49.08
2023-01-23T10:51:36.125Z,56.72
2023-01-23T10:54:31.692Z,52.75
2023-01-23T10:57:18.888Z,52.42
2023-01-23T10:59:58.009Z,53.13
2023-01-23T11:02:48.175Z,52.17
2023-01-23T11:05:52.197Z,45.53
2023-01-23T11:08:29.517Z,49.65
2023-01-23T11:11:15.398Z,51.80
2023-01-23T11:13:48.210Z,43.20
2023-01-23T11:16:18.836Z,48.17
2023-01-23T11:19:06.355Z,49.97
2023-01-23T11:21:35.904Z,50.05
2023-01-23T11:24:17.648Z,51.85
2023-01-23T11:26:45.281Z,54.35
2023-01-23T11:29:46.987Z,48.92
2023-01-23T11:32:16.556Z,51.50
2023-01-23T11:34:50.087Z,54.50
2023-01-23T11:37:32.512Z,49.53
2023-01-23T11:40:15.435Z,54.33
2023-01-23T11:42:43.909Z,59.90
2023-01-23T11:45:37.011Z,59.20
2023-01-23T11:48:39.111Z,56.85
2023-01-23T11:51:20.711Z,51.63
2023-01-23T11:53:57.681Z,49.50
2023-01-23T11:56:36.950Z,49.33
2023-01-23T11:59:09.981Z,55.30
2023-01-23T12:02:12.529Z,54.35
2023-01-23T12:05:13.656Z,56.22
2023-01-23T12:08:12.008Z,49.92
2023-01-23T12:11:01.293Z,47.28
2023-01-23T12:13:57.937Z,49.10
2023-01-23T12:16:50.086Z,50.30
2023-01-23T12:19:32.009Z,50.95
2023-01-23T12:22:20.334Z,43.47
2023-01-23T12:25:12.854Z,46.60
2023-01-23T12:27:46.920Z,47.70
2023-01-23T12:30:23.386Z,47.55
2023-01-23T12:33:06.591Z,42.72
2023-01-23T12:36:02.427Z,43.35
2023-01-23T12:38:45.554Z,41.67
2023-01-23T12:41:29.449Z,45.78
2023-01-23T12:44:09.085Z,43.95
2023-01-23T12:47:00.301Z,36.72
2023-01-23T12:49:39.153Z,41.58
2023-01-23T12:52:28.995Z,40.83
2023-01-23T12:55:01.892Z,42.22
2023-01-23T12:57:52.534Z,40.03
2023-01-23T13:00:35.496Z,38.35
2023-01-23T13:03:47.234Z,44.97
2023-01-23T13:06:41.244Z,38.90
2023-01-23T13:09:17.806Z,42.30
2023-01-23T13:11:54.585Z,44.75
2023-01-23T13:14:36.867Z,39.28
2023-01-23T13:17:33.549Z,44.50
2023-01-23T13:20:39.369Z,47.53
2023-01-23T13:23:32.423Z,45.33
2023-01-23T13:26:23.369Z,51.05
2023-01-23T13:28:58.065Z,47.22
2023-01-23T13:31:34.463Z,48.90
2023-01-23T13:34:15.407Z,49.58
2023-01-23T13:36:48.520Z,45.67
2023-01-23T13:39:18.510Z,48.80
2023-01-23T13:41:46.919Z,40.25
2023-01-23T13:44:41.554Z,46.33
2023-01-23T14:20:19.292Z,44.85
2023-01-23T14:22:46.716Z,49.60
2023-01-23T14:25:18.758Z,50.70
2023-01-23T14:27:54.642Z,42.75
2023-01-23T14:30:30.465Z,46.17
2023-01-23T14:33:01.429Z,39.92
2023-01-23T14:35:33.149Z,42.50
2023-01-23T14:38:08.920Z,44.92
2023-01-23T14:40:50.239Z,44.38
2023-01-23T14:43:22.110Z,46.50
2023-01-23T14:46:05.084Z,39.25
2023-01-23T14:48:37.720Z,40.60
2023-01-23T14:51:19.758Z,44.30
2023-01-23T14:53:58.858Z,40.80
2023-01-23T14:56:32.485Z,38.03
2023-01-23T14:59:07.248Z,38.53
2023-01-23T15:01:36.023Z,39.40
2023-01-23T15:04:06.113Z,34.60
2023-01-23T15:06:36.097Z,37.58
2023-01-23T15:09:14.377Z,34.75
2023-01-23T15:11:41.725Z,33.75
2023-01-23T15:14:23.939Z,36.42
2023-01-23T15:16:52.488Z,34.72
2023-01-23T15:19:22.909Z,34.17
2023-01-23T15:21:51.073Z,38.58
2023-01-23T15:24:26.803Z,35.35
2023-01-23T15:26:58.471Z,36.47
2023-01-23T15:29:27.405Z,37.83
2023-01-23T15:31:58.972Z,36.08
2023-01-23T15:34:28.085Z,33.85
2023-01-23T15:37:12.384Z,38.63
2023-01-23T15:40:04.484Z,26.45
2023-01-23T15:42:34.160Z,38.20
2023-01-23T15:45:02.779Z,35.45
2023-01-23T15:47:31.464Z,35.60
2023-01-23T15:50:03.314Z,33.95
2023-01-23T15:52:54.938Z,35.70
2023-01-23T15:55:26.364Z,35.15
2023-01-23T15:57:54.125Z,36.15
2023-01-23T16:00:27.557Z,39.10
2023-01-23T16:02:57.482Z,31.95
2023-01-23T16:05:28.845Z,39.35
2023-01-23T16:07:57.506Z,34.28
2023-01-23T16:10:30.093Z,33.97
2023-01-23T16:12:58.722Z,35.28
2023-01-23T16:15:29.051Z,38.33
2023-01-23T16:17:56.948Z,35.92
2023-01-23T16:20:28.587Z,35.95
2023-01-23T16:23:14.122Z,34.58
2023-01-23T16:25:44.877Z,36.25
2023-01-23T16:28:19.331Z,32.22
2023-01-23T16:30:47.516Z,32.17
2023-01-23T16:33:15.656Z,34.88
2023-01-23T16:35:43.473Z,33.53
2023-01-23T16:38:29.590Z,36.75
2023-01-23T16:40:59.911Z,35.13
2023-01-23T16:43:28.287Z,31.85
2023-01-23T16:45:57.293Z,39.65
2023-01-23T16:48:28.574Z,36.92
2023-01-23T16:51:19.913Z,39.38
2023-01-23T16:53:55.280Z,37.95
2023-01-23T16:56:36.242Z,37.67
2023-01-23T16:59:17.030Z,38.03
2023-01-23T17:01:47.688Z,36.88
2023-01-23T17:04:18.579Z,36.92
2023-01-23T17:06:46.259Z,41.15
2023-01-23T17:09:14.273Z,39.05
2023-01-23T17:11:59.540Z,40.17
2023-01-23T17:14:30.773Z,46.78
2023-01-23T17:17:07.411Z,45.15
2023-01-23T17:19:39.377Z,43.63
2023-01-23T17:22:14.210Z,42.33
2023-01-23T17:24:41.578Z,40.72
2023-01-23T17:27:08.830Z,45.05
2023-01-23T17:29:36.271Z,44.63
2023-01-23T17:32:04.682Z,40.90
2023-01-23T17:34:48.676Z,43.67
2023-01-23T17:37:21.584Z,43.65
2023-01-23T17:39:49.676Z,44.30
2023-01-23T17:42:18.973Z,48.67
2023-01-23T17:44:48.022Z,42.53
2023-01-23T17:47:16.188Z,43.83
2023-01-23T17:49:57.195Z,46.80
2023-01-23T17:52:27.629Z,43.28
2023-01-23T17:54:55.335Z,45.75
2023-01-23T17:57:22.892Z,45.03
2023-01-23T17:59:50.440Z,45.45
2023-01-23T18:02:24.287Z,46.22
2023-01-23T18:04:52.042Z,33.80
2023-01-23T18:07:19.833Z,48.08
2023-01-23T18:09:47.973Z,51.53
2023-01-23T18:12:40.381Z,46.38
2023-01-23T18:15:21.730Z,48.42
2023-01-23T18:18:03.920Z,48.15
2023-01-23T18:20:33.803Z,51.85
2023-01-23T18:23:01.788Z,56.60
2023-01-23T18:25:31.622Z,51.70
2023-01-23T18:28:07.407Z,55.13
2023-01-23T18:30:56.947Z,58.22
2023-01-23T18:33:49.032Z,50.45
2023-01-23T18:36:36.080Z,53.67
2023-01-23T18:39:32.727Z,43.70
2023-01-23T18:42:17.364Z,52.72
2023-01-23T18:44:59.595Z,52.38
2023-01-23T18:47:31.037Z,50.75
2023-01-23T18:49:59.398Z,46.55
2023-01-23T18:52:49.321Z,53.45
2023-01-23T18:55:35.698Z,53.85
2023-01-23T18:58:13.236Z,52.78
2023-01-23T19:00:48.759Z,58.42
2023-01-23T19:03:19.016Z,53.20
2023-01-23T19:05:49.842Z,49.72
2023-01-23T19:08:30.420Z,51.55
2023-01-23T19:11:06.143Z,48.88
2023-01-23T19:13:51.224Z,48.63
2023-01-23T19:16:34.025Z,55.38
2023-01-23T19:19:15.993Z,59.88
2023-01-23T19:21:47.734Z,78.20
2023-01-23T19:24:20.112Z,47.72
2023-01-23T19:26:48.525Z,50.85
2023-01-23T19:29:22.295Z,52.83
2023-01-23T19:32:04.145Z,77.38
2023-01-23T19:34:35.015Z,56.70
2023-01-23T19:37:04.120Z,61.05
2023-01-23T19:39:35.294Z,55.38
2023-01-23T19:42:04.465Z,49.50
2023-01-23T19:44:33.840Z,48.88
2023-01-23T19:47:05.661Z,52.60
2023-01-23T19:49:33.517Z,45.05
2023-01-23T19:52:02.715Z,51.75
2023-01-23T19:54:38.045Z,54.00
2023-01-23T19:57:11.111Z,49.33
2023-01-23T19:59:39.654Z,46.88
2023-01-23T20:02:22.024Z,52.70
2023-01-23T20:04:50.350Z,47.90
2023-01-23T20:07:18.175Z,50.92
2023-01-23T20:09:46.262Z,45.72
2023-01-23T20:12:14.345Z,54.78
2023-01-23T20:14:42.290Z,51.60
2023-01-23T20:17:10.508Z,57.45
2023-01-23T20:19:40.184Z,51.83
2023-01-23T20:22:10.070Z,50.80
2023-01-23T20:24:38.263Z,49.58
2023-01-23T20:27:06.451Z,48.08
2023-01-23T20:29:34.485Z,43.95
2023-01-23T20:32:02.739Z,44.25
2023-01-23T20:34:31.033Z,45.13
2023-01-23T20:36:59.244Z,48.20
2023-01-23T20:39:27.420Z,45.50
2023-01-23T20:41:55.325Z,51.38
2023-01-23T20:44:22.971Z,45.22
2023-01-23T20:46:51.208Z,40.47
2023-01-23T20:49:20.170Z,46.70
2023-01-23T20:51:47.766Z,44.03
2023-01-23T20:54:17.498Z,44.13
2023-01-23T20:56:46.751Z,44.65
2023-01-23T20:59:22.044Z,46.70
2023-01-23T21:02:08.418Z,48.47
2023-01-23T21:04:37.359Z,45.28
2023-01-23T21:07:05.779Z,47.83
2023-01-23T21:09:33.587Z,45.85
2023-01-23T21:12:01.583Z,44.42
2023-01-23T21:14:29.734Z,44.40
2023-01-23T21:16:58.629Z,44.90
2023-01-23T21:19:26.929Z,49.13
2023-01-23T21:21:54.609Z,47.10
2023-01-23T21:24:21.923Z,43.75
2023-01-23T21:26:50.159Z,41.75
2023-01-23T21:29:17.544Z,47.75
2023-01-23T21:31:45.149Z,44.17
2023-01-23T21:34:15.361Z,51.45
2023-01-23T21:36:43.170Z,45.25
2023-01-23T21:39:14.465Z,43.90
2023-01-23T21:41:42.058Z,44.67
2023-01-23T21:44:13.553Z,45.08
2023-01-23T21:46:41.231Z,43.47
2023-01-23T21:49:08.647Z,40.85
2023-01-23T21:51:35.891Z,39.13
2023-01-23T21:54:03.532Z,34.95
2023-01-23T21:56:31.368Z,33.72
2023-01-23T21:58:59.185Z,33.30
2023-01-23T22:01:33.285Z,33.78
2023-01-23T22:04:07.166Z,32.83
2023-01-23T22:06:36.662Z,32.15
2023-01-23T22:09:05.024Z,14.00
2023-01-23T22:11:32.364Z,25.15
2023-01-23T22:13:59.991Z,24.92
2023-01-23T22:16:45.597Z,30.27
2023-01-23T22:19:16.055Z,26.65
2023-01-23T22:21:43.973Z,29.50
2023-01-23T22:24:11.129Z,19.80
2023-01-23T22:26:38.364Z,24.33
2023-01-23T22:29:05.499Z,29.45
2023-01-23T22:31:33.455Z,28.05
2023-01-23T22:34:00.743Z,32.20
2023-01-23T22:36:27.882Z,32.63
2023-01-23T22:38:55.571Z,27.90
2023-01-23T22:41:23.353Z,31.35
2023-01-23T22:43:59.421Z,25.60
2023-01-23T22:46:27.640Z,29.05
2023-01-23T22:48:54.912Z,31.30
2023-01-23T22:51:24.809Z,32.22
2023-01-23T22:53:54.211Z,25.33
2023-01-23T22:56:22.216Z,32.47
2023-01-23T22:58:51.774Z,29.83
2023-01-23T23:01:19.821Z,30.55
2023-01-23T23:03:47.035Z,30.42
2023-01-23T23:06:15.797Z,26.17
2023-01-23T23:08:45.126Z,33.58
2023-01-23T23:11:22.901Z,26.60
2023-01-23T23:13:50.252Z,31.15
2023-01-23T23:16:19.114Z,29.95
2023-01-23T23:18:48.952Z,26.42
2023-01-23T23:21:19.853Z,30.65
2023-01-23T23:23:47.311Z,31.23
2023-01-23T23:26:15.558Z,37.38
2023-01-23T23:28:42.726Z,37.63
2023-01-23T23:31:10.326Z,35.28
2023-01-23T23:33:37.986Z,35.13
2023-01-23T23:36:05.924Z,30.23
2023-01-23T23:38:33.617Z,25.33
2023-01-23T23:41:03.865Z,35.40
2023-01-23T23:43:31.319Z,30.52
2023-01-23T23:46:04.354Z,29.25
2023-01-23T23:48:32.761Z,30.83
2023-01-23T23:51:01.335Z,28.63
2023-01-23T23:53:28.650Z,31.70
2023-01-23T23:55:55.914Z,32.03
2023-01-23T23:58:24.104Z,32.53
